sensor_id;sensor_type;location;lat;lon;timestamp;pressure;altitude;pressure_sealevel;temperature;humidity
61026;BME280;46911;32.650;-16.902;2023-07-30T00:00:02;101889.09;;;23.30;62.48
61026;BME280;46911;32.650;-16.902;2023-07-30T00:02:03;101877.44;;;23.19;62.26
61026;BME280;46911;32.650;-16.902;2023-07-30T00:04:04;101892.59;;;23.22;62.79
61026;BME280;46911;32.650;-16.902;2023-07-30T00:06:05;101877.44;;;23.19;62.54
61026;BME280;46911;32.650;-16.902;2023-07-30T00:08:06;101882.03;;;23.19;62.96
61026;BME280;46911;32.650;-16.902;2023-07-30T00:10:10;101886.47;;;23.20;63.13
61026;BME280;46911;32.650;-16.902;2023-07-30T00:12:11;101893.59;;;23.21;63.38
61026;BME280;46911;32.650;-16.902;2023-07-30T00:14:11;101888.88;;;23.23;63.30
61026;BME280;46911;32.650;-16.902;2023-07-30T00:16:12;101906.75;;;23.26;63.33
61026;BME280;46911;32.650;-16.902;2023-07-30T00:18:16;101896.19;;;23.22;63.65
61026;BME280;46911;32.650;-16.902;2023-07-30T00:20:17;101906.75;;;23.26;63.81
61026;BME280;46911;32.650;-16.902;2023-07-30T00:22:18;101899.03;;;23.21;63.89
61026;BME280;46911;32.650;-16.902;2023-07-30T00:24:19;101885.09;;;23.16;64.12
61026;BME280;46911;32.650;-16.902;2023-07-30T00:26:20;101882.72;;;23.21;63.85
61026;BME280;46911;32.650;-16.902;2023-07-30T00:28:21;101893.16;;;23.26;64.02
61026;BME280;46911;32.650;-16.902;2023-07-30T00:30:24;101889.72;;;23.23;63.92
61026;BME280;46911;32.650;-16.902;2023-07-30T00:32:28;101890.22;;;23.19;64.36
61026;BME280;46911;32.650;-16.902;2023-07-30T00:34:29;101890.88;;;23.21;64.47
61026;BME280;46911;32.650;-16.902;2023-07-30T00:36:30;101866.56;;;23.01;64.85
61026;BME280;46911;32.650;-16.902;2023-07-30T00:38:33;101884.38;;;23.14;64.83
61026;BME280;46911;32.650;-16.902;2023-07-30T00:40:39;101886.78;;;23.17;65.32
61026;BME280;46911;32.650;-16.902;2023-07-30T00:42:41;101885.59;;;23.19;65.11
61026;BME280;46911;32.650;-16.902;2023-07-30T00:44:42;101883.91;;;23.18;65.19
61026;BME280;46911;32.650;-16.902;2023-07-30T00:46:45;101878.34;;;23.10;65.19
61026;BME280;46911;32.650;-16.902;2023-07-30T00:48:49;101891.53;;;23.15;65.62
61026;BME280;46911;32.650;-16.902;2023-07-30T00:50:51;101882.50;;;23.14;65.57
61026;BME280;46911;32.650;-16.902;2023-07-30T00:52:52;101895.41;;;23.12;65.31
61026;BME280;46911;32.650;-16.902;2023-07-30T00:54:57;101868.41;;;23.01;65.45
61026;BME280;46911;32.650;-16.902;2023-07-30T00:57:00;101861.53;;;22.88;65.70
61026;BME280;46911;32.650;-16.902;2023-07-30T00:59:02;101882.56;;;23.04;65.78
61026;BME280;46911;32.650;-16.902;2023-07-30T01:01:05;101880.84;;;23.03;65.96
61026;BME280;46911;32.650;-16.902;2023-07-30T01:03:08;101881.91;;;23.02;66.36
61026;BME280;46911;32.650;-16.902;2023-07-30T01:05:09;101880.72;;;23.05;66.04
61026;BME280;46911;32.650;-16.902;2023-07-30T01:07:11;101889.13;;;23.12;66.18
61026;BME280;46911;32.650;-16.902;2023-07-30T01:09:14;101879.66;;;23.16;65.97
61026;BME280;46911;32.650;-16.902;2023-07-30T01:11:18;101885.78;;;23.18;66.25
61026;BME280;46911;32.650;-16.902;2023-07-30T01:13:19;101887.66;;;23.17;66.04
61026;BME280;46911;32.650;-16.902;2023-07-30T01:15:22;101844.75;;;22.93;66.31
61026;BME280;46911;32.650;-16.902;2023-07-30T01:17:24;101878.22;;;23.12;66.23
61026;BME280;46911;32.650;-16.902;2023-07-30T01:19:27;101858.78;;;23.06;66.61
61026;BME280;46911;32.650;-16.902;2023-07-30T01:21:28;101875.63;;;23.10;66.46
61026;BME280;46911;32.650;-16.902;2023-07-30T01:23:29;101880.56;;;23.06;66.12
61026;BME280;46911;32.650;-16.902;2023-07-30T01:25:35;101874.41;;;23.04;66.28
61026;BME280;46911;32.650;-16.902;2023-07-30T01:27:43;101873.72;;;23.02;66.29
61026;BME280;46911;32.650;-16.902;2023-07-30T01:29:59;101865.19;;;22.97;66.12
61026;BME280;46911;32.650;-16.902;2023-07-30T01:32:05;101872.84;;;23.02;65.97
61026;BME280;46911;32.650;-16.902;2023-07-30T01:34:10;101860.25;;;23.01;65.90
61026;BME280;46911;32.650;-16.902;2023-07-30T01:36:17;101856.53;;;23.02;65.32
61026;BME280;46911;32.650;-16.902;2023-07-30T01:38:19;101862.84;;;23.02;65.27
61026;BME280;46911;32.650;-16.902;2023-07-30T01:40:21;101859.41;;;23.00;64.95
61026;BME280;46911;32.650;-16.902;2023-07-30T01:42:28;101857.69;;;22.99;64.98
61026;BME280;46911;32.650;-16.902;2023-07-30T01:44:31;101857.66;;;22.91;64.42
61026;BME280;46911;32.650;-16.902;2023-07-30T01:46:35;101845.22;;;22.88;64.47
61026;BME280;46911;32.650;-16.902;2023-07-30T01:48:38;101851.81;;;22.86;64.68
61026;BME280;46911;32.650;-16.902;2023-07-30T01:50:39;101842.50;;;22.88;64.84
61026;BME280;46911;32.650;-16.902;2023-07-30T01:52:42;101840.47;;;22.90;64.60
61026;BME280;46911;32.650;-16.902;2023-07-30T01:54:43;101844.59;;;22.95;64.42
61026;BME280;46911;32.650;-16.902;2023-07-30T01:56:44;101858.34;;;22.93;64.35
61026;BME280;46911;32.650;-16.902;2023-07-30T01:58:48;101856.09;;;22.88;64.67
61026;BME280;46911;32.650;-16.902;2023-07-30T02:00:48;101854.91;;;22.91;64.95
61026;BME280;46911;32.650;-16.902;2023-07-30T02:02:51;101847.78;;;22.90;65.07
61026;BME280;46911;32.650;-16.902;2023-07-30T02:04:52;101841.66;;;22.88;65.08
61026;BME280;46911;32.650;-16.902;2023-07-30T02:06:53;101850.66;;;22.88;65.01
61026;BME280;46911;32.650;-16.902;2023-07-30T02:08:54;101852.69;;;22.86;65.14
61026;BME280;46911;32.650;-16.902;2023-07-30T02:10:58;101856.25;;;22.87;65.30
61026;BME280;46911;32.650;-16.902;2023-07-30T02:13:03;101849.66;;;22.89;65.09
61026;BME280;46911;32.650;-16.902;2023-07-30T02:15:09;101842.09;;;22.83;64.60
61026;BME280;46911;32.650;-16.902;2023-07-30T02:17:10;101844.97;;;22.82;64.31
61026;BME280;46911;32.650;-16.902;2023-07-30T02:19:16;101832.50;;;22.71;64.00
61026;BME280;46911;32.650;-16.902;2023-07-30T02:21:17;101841.81;;;22.68;63.67
61026;BME280;46911;32.650;-16.902;2023-07-30T02:23:21;101838.41;;;22.66;63.87
61026;BME280;46911;32.650;-16.902;2023-07-30T02:25:24;101834.31;;;22.62;63.94
61026;BME280;46911;32.650;-16.902;2023-07-30T02:27:28;101842.31;;;22.64;64.01
61026;BME280;46911;32.650;-16.902;2023-07-30T02:29:29;101832.19;;;22.56;64.29
61026;BME280;46911;32.650;-16.902;2023-07-30T02:31:32;101838.31;;;22.58;64.13
61026;BME280;46911;32.650;-16.902;2023-07-30T02:33:35;101828.09;;;22.52;64.14
61026;BME280;46911;32.650;-16.902;2023-07-30T02:35:36;101828.25;;;22.50;64.30
61026;BME280;46911;32.650;-16.902;2023-07-30T02:37:40;101834.38;;;22.52;64.39
61026;BME280;46911;32.650;-16.902;2023-07-30T02:39:45;101832.81;;;22.50;64.30
61026;BME280;46911;32.650;-16.902;2023-07-30T02:41:48;101836.00;;;22.45;64.56
61026;BME280;46911;32.650;-16.902;2023-07-30T02:43:51;101815.31;;;22.34;64.81
61026;BME280;46911;32.650;-16.902;2023-07-30T02:45:52;101822.47;;;22.35;65.23
61026;BME280;46911;32.650;-16.902;2023-07-30T02:47:53;101828.84;;;22.26;65.37
61026;BME280;46911;32.650;-16.902;2023-07-30T02:49:54;101834.72;;;22.21;65.82
61026;BME280;46911;32.650;-16.902;2023-07-30T02:51:55;101819.00;;;22.15;66.14
61026;BME280;46911;32.650;-16.902;2023-07-30T02:54:03;101818.00;;;21.98;66.61
61026;BME280;46911;32.650;-16.902;2023-07-30T02:56:04;101830.47;;;21.91;67.23
61026;BME280;46911;32.650;-16.902;2023-07-30T02:58:05;101820.81;;;21.79;67.55
61026;BME280;46911;32.650;-16.902;2023-07-30T03:00:07;101820.25;;;21.75;67.70
61026;BME280;46911;32.650;-16.902;2023-07-30T03:02:09;101824.44;;;21.69;68.00
61026;BME280;46911;32.650;-16.902;2023-07-30T03:04:13;101824.34;;;21.61;68.20
61026;BME280;46911;32.650;-16.902;2023-07-30T03:06:18;101815.19;;;21.52;67.74
61026;BME280;46911;32.650;-16.902;2023-07-30T03:08:24;101835.63;;;21.56;67.34
61026;BME280;46911;32.650;-16.902;2023-07-30T03:10:25;101820.09;;;21.49;67.13
61026;BME280;46911;32.650;-16.902;2023-07-30T03:12:26;101824.22;;;21.53;66.59
61026;BME280;46911;32.650;-16.902;2023-07-30T03:14:27;101837.50;;;21.56;66.09
61026;BME280;46911;32.650;-16.902;2023-07-30T03:16:28;101833.66;;;21.59;65.92
61026;BME280;46911;32.650;-16.902;2023-07-30T03:18:31;101829.03;;;21.69;65.82
61026;BME280;46911;32.650;-16.902;2023-07-30T03:20:35;101814.47;;;21.60;65.72
61026;BME280;46911;32.650;-16.902;2023-07-30T03:22:36;101834.00;;;21.73;65.62
61026;BME280;46911;32.650;-16.902;2023-07-30T03:24:37;101844.56;;;21.77;65.39
61026;BME280;46911;32.650;-16.902;2023-07-30T03:26:38;101835.66;;;21.84;65.37
61026;BME280;46911;32.650;-16.902;2023-07-30T03:28:39;101825.53;;;21.77;65.01
61026;BME280;46911;32.650;-16.902;2023-07-30T03:30:42;101828.13;;;21.78;64.86
61026;BME280;46911;32.650;-16.902;2023-07-30T03:32:44;101839.25;;;21.85;64.48
61026;BME280;46911;32.650;-16.902;2023-07-30T03:34:47;101829.81;;;21.79;64.69
61026;BME280;46911;32.650;-16.902;2023-07-30T03:36:54;101843.38;;;21.89;64.25
61026;BME280;46911;32.650;-16.902;2023-07-30T03:38:54;101844.06;;;21.91;64.17
61026;BME280;46911;32.650;-16.902;2023-07-30T03:40:55;101841.50;;;21.89;64.26
61026;BME280;46911;32.650;-16.902;2023-07-30T03:42:56;101849.63;;;21.89;63.95
61026;BME280;46911;32.650;-16.902;2023-07-30T03:44:59;101838.94;;;21.88;63.96
61026;BME280;46911;32.650;-16.902;2023-07-30T03:47:01;101842.13;;;21.83;63.81
61026;BME280;46911;32.650;-16.902;2023-07-30T03:49:02;101836.69;;;21.83;63.79
61026;BME280;46911;32.650;-16.902;2023-07-30T03:51:05;101846.53;;;21.84;63.53
61026;BME280;46911;32.650;-16.902;2023-07-30T03:53:11;101851.78;;;21.86;62.78
61026;BME280;46911;32.650;-16.902;2023-07-30T03:55:12;101851.09;;;21.84;62.68
61026;BME280;46911;32.650;-16.902;2023-07-30T03:57:13;101841.25;;;21.83;62.56
61026;BME280;46911;32.650;-16.902;2023-07-30T03:59:13;101847.69;;;21.82;62.38
61026;BME280;46911;32.650;-16.902;2023-07-30T04:01:14;101859.66;;;21.89;62.09
61026;BME280;46911;32.650;-16.902;2023-07-30T04:03:17;101853.34;;;21.88;62.08
61026;BME280;46911;32.650;-16.902;2023-07-30T04:05:21;101849.81;;;21.88;62.31
61026;BME280;46911;32.650;-16.902;2023-07-30T04:07:22;101846.84;;;21.81;62.89
61026;BME280;46911;32.650;-16.902;2023-07-30T04:09:23;101850.25;;;21.83;63.20
61026;BME280;46911;32.650;-16.902;2023-07-30T04:11:23;101846.00;;;21.81;63.52
61026;BME280;46911;32.650;-16.902;2023-07-30T04:13:24;101842.00;;;21.75;63.13
61026;BME280;46911;32.650;-16.902;2023-07-30T04:15:25;101839.44;;;21.73;63.02
61026;BME280;46911;32.650;-16.902;2023-07-30T04:17:29;101834.00;;;21.73;62.93
61026;BME280;46911;32.650;-16.902;2023-07-30T04:19:32;101850.28;;;21.73;63.29
61026;BME280;46911;32.650;-16.902;2023-07-30T04:21:33;101847.88;;;21.70;62.89
61026;BME280;46911;32.650;-16.902;2023-07-30T04:23:35;101842.03;;;21.65;62.96
61026;BME280;46911;32.650;-16.902;2023-07-30T04:25:39;101831.78;;;21.59;63.03
61026;BME280;46911;32.650;-16.902;2023-07-30T04:27:40;101835.53;;;21.58;62.75
61026;BME280;46911;32.650;-16.902;2023-07-30T04:29:41;101833.66;;;21.59;62.79
61026;BME280;46911;32.650;-16.902;2023-07-30T04:31:42;101828.94;;;21.61;62.41
61026;BME280;46911;32.650;-16.902;2023-07-30T04:33:48;101837.78;;;21.63;62.79
61026;BME280;46911;32.650;-16.902;2023-07-30T04:35:48;101832.50;;;21.61;62.05
61026;BME280;46911;32.650;-16.902;2023-07-30T04:37:52;101829.22;;;21.57;61.95
61026;BME280;46911;32.650;-16.902;2023-07-30T04:39:53;101840.31;;;21.74;61.67
61026;BME280;46911;32.650;-16.902;2023-07-30T04:41:54;101830.03;;;21.68;61.62
61026;BME280;46911;32.650;-16.902;2023-07-30T04:43:55;101829.56;;;21.72;61.26
61026;BME280;46911;32.650;-16.902;2023-07-30T04:45:56;101837.28;;;21.77;61.51
61026;BME280;46911;32.650;-16.902;2023-07-30T04:47:58;101847.28;;;21.77;61.55
61026;BME280;46911;32.650;-16.902;2023-07-30T04:50:02;101827.00;;;21.71;61.37
61026;BME280;46911;32.650;-16.902;2023-07-30T04:52:07;101842.56;;;21.79;61.54
61026;BME280;46911;32.650;-16.902;2023-07-30T04:54:10;101835.56;;;21.76;61.78
61026;BME280;46911;32.650;-16.902;2023-07-30T04:56:14;101836.13;;;21.80;61.68
61026;BME280;46911;32.650;-16.902;2023-07-30T04:58:15;101828.25;;;21.77;62.04
61026;BME280;46911;32.650;-16.902;2023-07-30T05:00:16;101814.91;;;21.65;61.92
61026;BME280;46911;32.650;-16.902;2023-07-30T05:02:17;101825.28;;;21.70;61.95
61026;BME280;46911;32.650;-16.902;2023-07-30T05:04:18;101821.72;;;21.69;62.26
61026;BME280;46911;32.650;-16.902;2023-07-30T05:06:22;101827.63;;;21.65;62.44
61026;BME280;46911;32.650;-16.902;2023-07-30T05:08:26;101818.06;;;21.61;62.54
61026;BME280;46911;32.650;-16.902;2023-07-30T05:10:27;101825.19;;;21.62;63.00
61026;BME280;46911;32.650;-16.902;2023-07-30T05:12:27;101819.50;;;21.55;63.04
61026;BME280;46911;32.650;-16.902;2023-07-30T05:14:28;101818.66;;;21.54;63.56
61026;BME280;46911;32.650;-16.902;2023-07-30T05:16:29;101819.50;;;21.55;63.29
61026;BME280;46911;32.650;-16.902;2023-07-30T05:18:30;101818.06;;;21.51;63.52
61026;BME280;46911;32.650;-16.902;2023-07-30T05:20:31;101820.94;;;21.49;63.70
61026;BME280;46911;32.650;-16.902;2023-07-30T05:22:34;101810.91;;;21.50;63.71
61026;BME280;46911;32.650;-16.902;2023-07-30T05:24:35;101818.06;;;21.51;63.62
61026;BME280;46911;32.650;-16.902;2023-07-30T05:26:37;101823.66;;;21.49;63.91
61026;BME280;46911;32.650;-16.902;2023-07-30T05:28:38;101838.38;;;21.47;63.80
61026;BME280;46911;32.650;-16.902;2023-07-30T05:30:39;101835.97;;;21.44;63.87
61026;BME280;46911;32.650;-16.902;2023-07-30T05:32:42;101834.72;;;21.38;63.99
61026;BME280;46911;32.650;-16.902;2023-07-30T05:34:48;101820.00;;;21.31;63.81
61026;BME280;46911;32.650;-16.902;2023-07-30T05:36:48;101837.69;;;21.35;63.56
61026;BME280;46911;32.650;-16.902;2023-07-30T05:38:52;101836.28;;;21.31;64.01
61026;BME280;46911;32.650;-16.902;2023-07-30T05:40:53;101830.91;;;21.21;63.27
61026;BME280;46911;32.650;-16.902;2023-07-30T05:42:57;101836.03;;;21.24;63.57
61026;BME280;46911;32.650;-16.902;2023-07-30T05:44:58;101846.72;;;21.35;62.81
61026;BME280;46911;32.650;-16.902;2023-07-30T05:47:01;101846.00;;;21.33;62.91
61026;BME280;46911;32.650;-16.902;2023-07-30T05:49:02;101844.13;;;21.34;62.49
61026;BME280;46911;32.650;-16.902;2023-07-30T05:51:03;101851.56;;;21.32;62.44
61026;BME280;46911;32.650;-16.902;2023-07-30T05:53:04;101844.00;;;21.35;62.20
61026;BME280;46911;32.650;-16.902;2023-07-30T05:55:05;101858.69;;;21.43;61.86
61026;BME280;46911;32.650;-16.902;2023-07-30T05:57:09;101840.81;;;21.40;61.41
61026;BME280;46911;32.650;-16.902;2023-07-30T05:59:10;101862.38;;;21.51;61.03
61026;BME280;46911;32.650;-16.902;2023-07-30T06:01:14;101856.38;;;21.48;61.39
61026;BME280;46911;32.650;-16.902;2023-07-30T06:03:15;101849.22;;;21.47;61.27
61026;BME280;46911;32.650;-16.902;2023-07-30T06:05:16;101863.09;;;21.53;61.48
61026;BME280;46911;32.650;-16.902;2023-07-30T06:07:17;101851.50;;;21.51;61.66
61026;BME280;46911;32.650;-16.902;2023-07-30T06:09:22;101860.06;;;21.56;61.61
61026;BME280;46911;32.650;-16.902;2023-07-30T06:11:25;101860.94;;;21.57;62.25
61026;BME280;46911;32.650;-16.902;2023-07-30T06:13:27;101853.81;;;21.56;62.57
61026;BME280;46911;32.650;-16.902;2023-07-30T06:15:28;101856.06;;;21.51;62.83
61026;BME280;46911;32.650;-16.902;2023-07-30T06:17:31;101858.38;;;21.46;63.19
61026;BME280;46911;32.650;-16.902;2023-07-30T06:19:34;101856.53;;;21.46;63.09
61026;BME280;46911;32.650;-16.902;2023-07-30T06:21:35;101858.53;;;21.44;63.33
61026;BME280;46911;32.650;-16.902;2023-07-30T06:23:36;101848.81;;;21.41;63.51
61026;BME280;46911;32.650;-16.902;2023-07-30T06:25:37;101860.09;;;21.47;63.70
61026;BME280;46911;32.650;-16.902;2023-07-30T06:27:41;101849.69;;;21.42;63.88
61026;BME280;46911;32.650;-16.902;2023-07-30T06:29:48;101860.22;;;21.55;63.89
61026;BME280;46911;32.650;-16.902;2023-07-30T06:32:21;101870.38;;;21.53;63.86
61026;BME280;46911;32.650;-16.902;2023-07-30T06:34:27;101870.09;;;21.56;63.89
61026;BME280;46911;32.650;-16.902;2023-07-30T06:36:28;101867.22;;;21.67;63.71
61026;BME280;46911;32.650;-16.902;2023-07-30T06:38:31;101867.06;;;21.69;63.73
61026;BME280;46911;32.650;-16.902;2023-07-30T06:40:32;101865.91;;;21.71;63.72
61026;BME280;46911;32.650;-16.902;2023-07-30T06:42:33;101866.59;;;21.73;63.69
61026;BME280;46911;32.650;-16.902;2023-07-30T06:44:34;101864.13;;;21.80;63.43
61026;BME280;46911;32.650;-16.902;2023-07-30T06:46:35;101865.69;;;21.83;63.38
61026;BME280;46911;32.650;-16.902;2023-07-30T06:48:36;101867.41;;;21.84;63.45
61026;BME280;46911;32.650;-16.902;2023-07-30T06:50:39;101854.81;;;21.83;63.71
61026;BME280;46911;32.650;-16.902;2023-07-30T06:52:40;101873.09;;;21.90;63.45
61026;BME280;46911;32.650;-16.902;2023-07-30T06:54:43;101868.97;;;21.86;63.59
61026;BME280;46911;32.650;-16.902;2023-07-30T06:56:44;101875.91;;;21.99;63.42
61026;BME280;46911;32.650;-16.902;2023-07-30T06:58:48;101869.91;;;21.95;63.40
61026;BME280;46911;32.650;-16.902;2023-07-30T07:00:49;101888.72;;;22.06;63.52
61026;BME280;46911;32.650;-16.902;2023-07-30T07:02:50;101885.53;;;22.11;63.41
61026;BME280;46911;32.650;-16.902;2023-07-30T07:04:54;101878.72;;;22.07;63.08
61026;BME280;46911;32.650;-16.902;2023-07-30T07:06:55;101881.28;;;22.08;63.30
61026;BME280;46911;32.650;-16.902;2023-07-30T07:08:58;101896.16;;;22.04;63.54
61026;BME280;46911;32.650;-16.902;2023-07-30T07:10:59;101896.47;;;22.01;63.80
61026;BME280;46911;32.650;-16.902;2023-07-30T07:13:02;101895.31;;;22.04;63.83
61026;BME280;46911;32.650;-16.902;2023-07-30T07:15:06;101894.16;;;22.06;63.80
61026;BME280;46911;32.650;-16.902;2023-07-30T07:17:10;101898.38;;;22.19;63.39
61026;BME280;46911;32.650;-16.902;2023-07-30T07:19:11;101895.34;;;22.22;63.31
61026;BME280;46911;32.650;-16.902;2023-07-30T07:21:12;101898.88;;;22.32;62.81
61026;BME280;46911;32.650;-16.902;2023-07-30T07:23:13;101897.16;;;22.41;62.42
61026;BME280;46911;32.650;-16.902;2023-07-30T07:25:16;101906.31;;;22.58;62.11
61026;BME280;46911;32.650;-16.902;2023-07-30T07:27:19;101906.09;;;22.69;61.93
61026;BME280;46911;32.650;-16.902;2023-07-30T07:29:24;101906.00;;;22.79;61.81
61026;BME280;46911;32.650;-16.902;2023-07-30T07:31:25;101909.50;;;22.89;61.38
61026;BME280;46911;32.650;-16.902;2023-07-30T07:33:28;101912.28;;;22.98;61.43
61026;BME280;46911;32.650;-16.902;2023-07-30T07:35:29;101913.75;;;23.10;61.11
61026;BME280;46911;32.650;-16.902;2023-07-30T07:37:32;101907.53;;;23.18;60.83
61026;BME280;46911;32.650;-16.902;2023-07-30T07:39:33;101916.16;;;23.31;60.32
61026;BME280;46911;32.650;-16.902;2023-07-30T07:41:39;101906.19;;;23.40;59.82
61026;BME280;46911;32.650;-16.902;2023-07-30T07:43:42;101906.78;;;23.52;59.66
61026;BME280;46911;32.650;-16.902;2023-07-30T07:45:43;101905.47;;;23.64;59.54
61026;BME280;46911;32.650;-16.902;2023-07-30T07:47:46;101905.38;;;23.82;59.51
61026;BME280;46911;32.650;-16.902;2023-07-30T07:49:47;101905.66;;;23.97;58.85
61026;BME280;46911;32.650;-16.902;2023-07-30T07:51:49;101896.44;;;23.98;59.04
61026;BME280;46911;32.650;-16.902;2023-07-30T07:53:50;101896.16;;;24.01;58.64
61026;BME280;46911;32.650;-16.902;2023-07-30T07:55:53;101906.00;;;24.02;59.27
61026;BME280;46911;32.650;-16.902;2023-07-30T07:57:54;101913.16;;;24.03;59.04
61026;BME280;46911;32.650;-16.902;2023-07-30T07:59:58;101918.41;;;23.97;59.79
61026;BME280;46911;32.650;-16.902;2023-07-30T08:01:59;101908.69;;;23.94;59.33
61026;BME280;46911;32.650;-16.902;2023-07-30T08:04:05;101922.22;;;24.04;59.67
61026;BME280;46911;32.650;-16.902;2023-07-30T08:06:06;101906.72;;;24.04;59.39
61026;BME280;46911;32.650;-16.902;2023-07-30T08:08:12;101921.38;;;24.12;59.49
61026;BME280;46911;32.650;-16.902;2023-07-30T08:10:13;101916.97;;;24.11;59.42
61026;BME280;46911;32.650;-16.902;2023-07-30T08:12:14;101931.28;;;24.13;59.40
61026;BME280;46911;32.650;-16.902;2023-07-30T08:14:15;101934.53;;;24.16;59.72
61026;BME280;46911;32.650;-16.902;2023-07-30T08:16:16;101919.19;;;24.15;59.62
61026;BME280;46911;32.650;-16.902;2023-07-30T08:18:20;101919.38;;;24.22;59.75
61026;BME280;46911;32.650;-16.902;2023-07-30T08:20:24;101933.06;;;24.38;59.66
61026;BME280;46911;32.650;-16.902;2023-07-30T08:22:27;101943.31;;;24.53;59.28
61026;BME280;46911;32.650;-16.902;2023-07-30T08:24:28;101932.75;;;24.58;59.39
61026;BME280;46911;32.650;-16.902;2023-07-30T08:26:32;101946.47;;;24.74;58.97
61026;BME280;46911;32.650;-16.902;2023-07-30T08:28:33;101948.16;;;24.76;59.21
61026;BME280;46911;32.650;-16.902;2023-07-30T08:30:33;101952.44;;;24.78;59.06
61026;BME280;46911;32.650;-16.902;2023-07-30T08:32:37;101952.78;;;24.75;59.50
61026;BME280;46911;32.650;-16.902;2023-07-30T08:34:38;101945.22;;;24.61;59.46
61026;BME280;46911;32.650;-16.902;2023-07-30T08:36:39;101942.81;;;24.49;59.63
61026;BME280;46911;32.650;-16.902;2023-07-30T08:38:40;101951.66;;;24.43;60.12
61026;BME280;46911;32.650;-16.902;2023-07-30T08:40:41;101956.75;;;24.38;60.82
61026;BME280;46911;32.650;-16.902;2023-07-30T08:42:44;101954.00;;;24.30;61.13
61026;BME280;46911;32.650;-16.902;2023-07-30T08:44:47;101953.63;;;24.24;61.51
61026;BME280;46911;32.650;-16.902;2023-07-30T08:46:48;101969.00;;;24.26;61.82
61026;BME280;46911;32.650;-16.902;2023-07-30T08:48:52;101962.34;;;24.28;61.60
61026;BME280;46911;32.650;-16.902;2023-07-30T08:50:56;101964.94;;;24.46;61.44
61026;BME280;46911;32.650;-16.902;2023-07-30T08:53:01;101966.69;;;24.55;61.29
61026;BME280;46911;32.650;-16.902;2023-07-30T08:55:06;101973.56;;;24.68;60.88
61026;BME280;46911;32.650;-16.902;2023-07-30T08:57:08;101983.81;;;24.74;61.31
61026;BME280;46911;32.650;-16.902;2023-07-30T08:59:09;101975.47;;;24.76;61.76
61026;BME280;46911;32.650;-16.902;2023-07-30T09:01:16;101970.72;;;24.94;61.41
61026;BME280;46911;32.650;-16.902;2023-07-30T09:03:23;101975.16;;;24.95;61.37
61026;BME280;46911;32.650;-16.902;2023-07-30T09:05:26;101976.19;;;25.19;60.60
61026;BME280;46911;32.650;-16.902;2023-07-30T09:07:34;101969.56;;;25.21;60.58
61026;BME280;46911;32.650;-16.902;2023-07-30T09:09:36;101977.38;;;25.24;60.62
61026;BME280;46911;32.650;-16.902;2023-07-30T09:11:37;101963.91;;;25.39;60.28
61026;BME280;46911;32.650;-16.902;2023-07-30T09:13:39;101965.97;;;25.46;59.69
61026;BME280;46911;32.650;-16.902;2023-07-30T09:15:40;101971.03;;;25.65;60.16
61026;BME280;46911;32.650;-16.902;2023-07-30T09:17:45;101964.22;;;25.78;59.19
61026;BME280;46911;32.650;-16.902;2023-07-30T09:19:46;101956.28;;;25.99;59.89
61026;BME280;46911;32.650;-16.902;2023-07-30T09:21:47;101946.03;;;26.10;58.85
61026;BME280;46911;32.650;-16.902;2023-07-30T09:23:48;101950.34;;;26.35;58.51
61026;BME280;46911;32.650;-16.902;2023-07-30T09:25:49;101953.88;;;26.44;58.24
61026;BME280;46911;32.650;-16.902;2023-07-30T09:27:51;101958.88;;;26.64;57.79
61026;BME280;46911;32.650;-16.902;2023-07-30T09:29:54;101956.66;;;26.67;56.24
61026;BME280;46911;32.650;-16.902;2023-07-30T09:31:55;101955.91;;;26.50;56.81
61026;BME280;46911;32.650;-16.902;2023-07-30T09:33:56;101959.38;;;26.76;56.59
61026;BME280;46911;32.650;-16.902;2023-07-30T09:36:00;101948.50;;;27.05;56.13
61026;BME280;46911;32.650;-16.902;2023-07-30T09:38:03;101959.78;;;27.11;55.05
61026;BME280;46911;32.650;-16.902;2023-07-30T09:40:06;101953.69;;;27.23;55.25
61026;BME280;46911;32.650;-16.902;2023-07-30T09:42:09;101953.28;;;27.50;53.91
61026;BME280;46911;32.650;-16.902;2023-07-30T09:44:17;101962.44;;;27.42;54.15
61026;BME280;46911;32.650;-16.902;2023-07-30T09:46:19;101959.53;;;27.44;54.91
61026;BME280;46911;32.650;-16.902;2023-07-30T09:48:19;101974.34;;;27.11;55.10
61026;BME280;46911;32.650;-16.902;2023-07-30T09:50:21;101981.00;;;27.32;54.62
61026;BME280;46911;32.650;-16.902;2023-07-30T09:52:22;101973.63;;;27.55;54.01
61026;BME280;46911;32.650;-16.902;2023-07-30T09:54:23;101979.22;;;27.62;53.86
61026;BME280;46911;32.650;-16.902;2023-07-30T09:56:26;101961.97;;;27.38;53.95
61026;BME280;46911;32.650;-16.902;2023-07-30T09:58:27;101958.91;;;27.71;52.76
61026;BME280;46911;32.650;-16.902;2023-07-30T10:00:29;101969.75;;;27.27;54.73
61026;BME280;46911;32.650;-16.902;2023-07-30T10:02:31;101963.78;;;27.46;54.23
61026;BME280;46911;32.650;-16.902;2023-07-30T10:04:43;101970.78;;;27.94;53.12
61026;BME280;46911;32.650;-16.902;2023-07-30T10:07:01;101965.50;;;27.77;52.97
61026;BME280;46911;32.650;-16.902;2023-07-30T10:09:04;101954.53;;;28.37;51.73
61026;BME280;46911;32.650;-16.902;2023-07-30T10:11:07;101962.59;;;28.23;52.99
61026;BME280;46911;32.650;-16.902;2023-07-30T10:13:10;101968.56;;;28.12;52.38
61026;BME280;46911;32.650;-16.902;2023-07-30T10:15:12;101965.59;;;28.14;52.34
61026;BME280;46911;32.650;-16.902;2023-07-30T10:17:13;101967.22;;;27.93;52.69
61026;BME280;46911;32.650;-16.902;2023-07-30T10:19:17;101967.13;;;28.16;52.17
61026;BME280;46911;32.650;-16.902;2023-07-30T10:21:23;101969.13;;;28.08;51.78
61026;BME280;46911;32.650;-16.902;2023-07-30T10:23:29;101962.97;;;28.57;50.12